createdAt,value
2019-02-21T00:00:30.117Z,102277.75
2019-02-21T00:02:59.908Z,102278.33
2019-02-21T00:05:29.654Z,102281.03
2019-02-21T00:07:59.351Z,102274.78
2019-02-21T00:10:29.169Z,102273.34
2019-02-21T00:12:58.843Z,102275.83
2019-02-21T00:15:28.559Z,102274.62
2019-02-21T00:17:58.297Z,102275.28
2019-02-21T00:20:28.017Z,102271.26
2019-02-21T00:22:57.692Z,102279.25
2019-02-21T00:25:27.435Z,102281.82
2019-02-21T00:27:57.146Z,102271.36
2019-02-21T00:30:34.908Z,102273.71
2019-02-21T00:32:58.316Z,102281.97
2019-02-21T00:35:28.032Z,102280.34
2019-02-21T00:37:57.687Z,102281.11
2019-02-21T00:40:27.322Z,102279.70
2019-02-21T00:42:57.048Z,102273.30
2019-02-21T00:45:26.989Z,102271.85
2019-02-21T00:47:56.743Z,102277.66
2019-02-21T00:50:26.459Z,102278.63
2019-02-21T00:52:56.215Z,102278.41
2019-02-21T00:55:27.792Z,102282.38
2019-02-21T00:57:57.353Z,102268.48
2019-02-21T01:00:27.162Z,102275.06
2019-02-21T01:02:56.830Z,102276.16
2019-02-21T01:05:26.671Z,102280.92
2019-02-21T01:07:56.339Z,102288.98
2019-02-21T01:10:26.016Z,102287.02
2019-02-21T01:12:55.757Z,102286.73
2019-02-21T01:15:25.864Z,102285.09
2019-02-21T01:17:55.533Z,102288.20
2019-02-21T01:20:25.207Z,102295.20
2019-02-21T01:22:54.922Z,102300.50
2019-02-21T01:25:24.628Z,102305.44
2019-02-21T01:27:54.641Z,102298.45
2019-02-21T01:30:24.345Z,102303.11
2019-02-21T01:32:54.020Z,102302.60
2019-02-21T01:35:23.791Z,102307.17
2019-02-21T01:37:53.625Z,102309.50
2019-02-21T01:40:23.413Z,102302.32
2019-02-21T01:42:53.198Z,102306.66
2019-02-21T01:45:22.918Z,102306.66
2019-02-21T01:47:52.594Z,102308.34
2019-02-21T01:50:22.240Z,102308.13
2019-02-21T01:52:51.971Z,102302.83
2019-02-21T01:55:21.630Z,102311.09
2019-02-21T01:57:51.375Z,102312.33
2019-02-21T02:00:21.134Z,102314.69
2019-02-21T02:02:50.911Z,102315.42
2019-02-21T02:05:20.734Z,102324.33
2019-02-21T02:07:50.637Z,102323.51
2019-02-21T02:10:20.359Z,102324.05
2019-02-21T02:12:50.082Z,102333.67
2019-02-21T02:15:19.783Z,102329.25
2019-02-21T02:17:49.442Z,102325.78
2019-02-21T02:20:19.106Z,102333.23
2019-02-21T02:22:48.825Z,102334.10
2019-02-21T02:25:18.507Z,102328.50
2019-02-21T02:27:48.250Z,102337.44
2019-02-21T02:30:17.975Z,102326.47
2019-02-21T02:32:47.699Z,102325.78
2019-02-21T02:35:19.263Z,102328.16
2019-02-21T02:37:48.943Z,102327.20
2019-02-21T02:40:18.630Z,102333.66
2019-02-21T02:42:48.282Z,102337.12
2019-02-21T02:45:17.972Z,102339.33
2019-02-21T02:47:47.630Z,102342.20
2019-02-21T02:50:17.365Z,102333.46
2019-02-21T02:52:47.061Z,102332.64
2019-02-21T02:55:16.831Z,102339.84
2019-02-21T02:57:46.619Z,102340.89
2019-02-21T03:00:16.587Z,102343.09
2019-02-21T03:02:46.313Z,102336.61
2019-02-21T03:05:16.136Z,102337.63
2019-02-21T03:07:45.871Z,102327.03
2019-02-21T03:10:15.709Z,102332.64
2019-02-21T03:12:45.454Z,102330.22
2019-02-21T03:15:15.381Z,102329.99
2019-02-21T03:17:45.113Z,102338.16
2019-02-21T03:20:14.933Z,102338.30
2019-02-21T03:22:44.732Z,102338.80
2019-02-21T03:25:14.985Z,102341.55
2019-02-21T03:27:44.627Z,102345.14
2019-02-21T03:30:14.504Z,102349.03
2019-02-21T03:32:44.385Z,102337.87
2019-02-21T03:35:14.215Z,102344.12
2019-02-21T03:37:43.997Z,102343.39
2019-02-21T03:40:13.952Z,102343.39
2019-02-21T03:42:43.675Z,102348.09
2019-02-21T03:45:15.353Z,102341.75
2019-02-21T03:47:45.197Z,102346.55
2019-02-21T03:50:15.057Z,102348.87
2019-02-21T03:52:44.817Z,102341.47
2019-02-21T03:55:14.549Z,102342.80
2019-02-21T03:57:44.246Z,102347.21
2019-02-21T04:00:14.374Z,102336.39
2019-02-21T04:02:44.247Z,102335.48
2019-02-21T04:05:14.268Z,102337.03
2019-02-21T04:07:44.008Z,102330.50
2019-02-21T04:10:13.837Z,102334.70
2019-02-21T04:12:43.553Z,102327.34
2019-02-21T04:15:14.255Z,102323.42
2019-02-21T04:17:43.941Z,102322.31
2019-02-21T04:20:13.785Z,102316.42
2019-02-21T04:22:43.449Z,102319.97
2019-02-21T04:25:13.145Z,102319.23
2019-02-21T04:27:42.888Z,102321.73
2019-02-21T04:30:12.880Z,102319.38
2019-02-21T04:32:42.580Z,102313.22
2019-02-21T04:35:12.250Z,102315.40
2019-02-21T04:37:41.994Z,102317.54
2019-02-21T04:40:11.818Z,102310.33
2019-02-21T04:42:41.519Z,102308.19
2019-02-21T04:45:11.387Z,102301.16
2019-02-21T04:47:41.102Z,102305.16
2019-02-21T04:50:10.912Z,102309.45
2019-02-21T04:52:40.788Z,102309.67
2019-02-21T04:55:10.561Z,102313.10
2019-02-21T04:57:40.360Z,102311.43
2019-02-21T05:00:13.101Z,102311.59
2019-02-21T05:02:42.852Z,102313.25
2019-02-21T05:05:12.648Z,102311.05
2019-02-21T05:07:42.348Z,102310.55
2019-02-21T05:10:12.112Z,102311.43
2019-02-21T05:12:41.851Z,102311.20
2019-02-21T05:15:13.928Z,102307.02
2019-02-21T05:17:43.136Z,102313.06
2019-02-21T05:20:12.784Z,102312.02
2019-02-21T05:22:42.490Z,102317.83
2019-02-21T05:25:12.134Z,102319.88
2019-02-21T05:27:44.410Z,102320.91
2019-02-21T05:30:15.863Z,102316.72
2019-02-21T05:32:47.204Z,102320.09
2019-02-21T05:35:18.580Z,102311.27
2019-02-21T05:37:49.906Z,102310.99
2019-02-21T05:40:28.584Z,102308.25
2019-02-21T05:43:12.503Z,102305.39
2019-02-21T05:45:46.994Z,102307.30
2019-02-21T05:48:30.853Z,102312.82
2019-02-21T05:51:13.941Z,102316.28
2019-02-21T05:53:45.238Z,102315.31
2019-02-21T05:56:16.574Z,102323.16
2019-02-21T05:58:53.646Z,102315.38
2019-02-21T06:01:25.823Z,102319.57
2019-02-21T06:04:05.967Z,102321.84
2019-02-21T06:06:40.299Z,102327.64
2019-02-21T06:09:14.130Z,102331.01
2019-02-21T06:11:48.167Z,102326.98
2019-02-21T06:14:35.666Z,102324.62
2019-02-21T06:17:13.862Z,102324.55
2019-02-21T06:19:43.440Z,102327.27
2019-02-21T06:22:32.792Z,102328.14
2019-02-21T06:25:06.958Z,102332.84
2019-02-21T06:27:43.959Z,102333.77
2019-02-21T06:30:21.209Z,102340.45
2019-02-21T06:32:50.937Z,102346.83
2019-02-21T06:35:20.660Z,102347.61
2019-02-21T06:37:50.301Z,102350.64
2019-02-21T06:40:20.018Z,102352.78
2019-02-21T06:42:49.707Z,102355.14
2019-02-21T06:45:19.535Z,102352.19
2019-02-21T06:47:49.344Z,102354.61
2019-02-21T06:50:26.388Z,102358.30
2019-02-21T06:52:50.637Z,102357.03
2019-02-21T06:55:20.714Z,102357.86
2019-02-21T06:57:50.565Z,102358.58
2019-02-21T07:00:20.235Z,102354.98
2019-02-21T07:02:50.007Z,102351.71
2019-02-21T07:05:19.854Z,102353.76
2019-02-21T07:07:49.924Z,102361.20
2019-02-21T07:10:19.841Z,102360.75
2019-02-21T07:12:49.586Z,102362.39
2019-02-21T07:15:19.249Z,102366.80
2019-02-21T07:17:49.804Z,102359.11
2019-02-21T07:20:19.671Z,102358.16
2019-02-21T07:22:49.537Z,102362.13
2019-02-21T07:25:20.981Z,102370.59
2019-02-21T07:27:50.641Z,102368.63
2019-02-21T07:30:23.072Z,102374.67
2019-02-21T07:32:51.973Z,102377.52
2019-02-21T07:35:21.613Z,102380.19
2019-02-21T07:37:53.237Z,102374.72
2019-02-21T07:40:22.876Z,102367.95
2019-02-21T07:42:52.758Z,102372.16
2019-02-21T07:45:22.451Z,102362.93
2019-02-21T07:47:52.212Z,102373.39
2019-02-21T07:50:23.148Z,102375.14
2019-02-21T07:53:32.126Z,102376.01
2019-02-21T07:56:01.987Z,102381.31
2019-02-21T07:58:31.842Z,102399.00
2019-02-21T08:01:02.824Z,102397.27
2019-02-21T08:03:43.857Z,102399.72
2019-02-21T08:06:04.169Z,102395.55
2019-02-21T08:08:34.130Z,102400.22
2019-02-21T08:11:03.901Z,102401.88
2019-02-21T08:13:33.687Z,102399.06
2019-02-21T08:16:03.578Z,102410.28
2019-02-21T08:18:33.442Z,102415.74
2019-02-21T08:21:03.165Z,102418.67
2019-02-21T08:23:33.034Z,102419.38
2019-02-21T08:26:02.962Z,102419.25
2019-02-21T08:28:32.758Z,102429.09
2019-02-21T08:31:02.645Z,102425.89
2019-02-21T08:33:34.117Z,102427.06
2019-02-21T08:36:03.992Z,102424.16
2019-02-21T08:38:33.675Z,102424.52
2019-02-21T08:41:03.461Z,102428.14
2019-02-21T08:43:33.366Z,102422.82
2019-02-21T08:46:03.226Z,102424.22
2019-02-21T08:48:33.058Z,102432.70
2019-02-21T08:51:03.003Z,102430.21
2019-02-21T08:53:32.945Z,102432.67
2019-02-21T08:56:02.833Z,102433.86
2019-02-21T08:58:32.701Z,102429.55
2019-02-21T09:01:02.836Z,102440.19
2019-02-21T09:03:32.660Z,102426.31
2019-02-21T09:06:02.652Z,102429.44
2019-02-21T09:08:35.056Z,102445.50
2019-02-21T09:11:04.305Z,102449.25
2019-02-21T09:13:34.362Z,102447.78
2019-02-21T09:16:04.274Z,102451.28
2019-02-21T09:18:34.038Z,102457.63
2019-02-21T09:21:03.904Z,102456.22
2019-02-21T09:23:33.684Z,102455.34
2019-02-21T09:26:03.538Z,102446.23
2019-02-21T09:28:33.335Z,102445.48
2019-02-21T09:31:03.168Z,102440.67
2019-02-21T09:33:32.933Z,102448.60
2019-02-21T09:36:02.707Z,102447.75
2019-02-21T09:38:34.699Z,102453.02
2019-02-21T09:41:04.486Z,102444.20
2019-02-21T09:43:34.369Z,102447.02
2019-02-21T09:46:04.076Z,102445.64
2019-02-21T09:48:38.039Z,102451.41
2019-02-21T09:51:07.981Z,102444.43
2019-02-21T09:53:37.669Z,102453.41
2019-02-21T09:56:07.400Z,102448.69
2019-02-21T09:58:37.605Z,102456.30
2019-02-21T10:01:07.369Z,102463.38
2019-02-21T10:03:37.155Z,102472.90
2019-02-21T10:06:08.328Z,102472.95
2019-02-21T10:08:38.194Z,102489.45
2019-02-21T10:11:08.074Z,102493.38
2019-02-21T10:13:37.775Z,102501.28
2019-02-21T10:16:07.491Z,102495.63
2019-02-21T10:18:37.511Z,102494.70
2019-02-21T10:21:07.220Z,102495.00
2019-02-21T10:23:37.100Z,102495.94
2019-02-21T10:26:11.120Z,102499.52
2019-02-21T10:28:40.922Z,102496.42
2019-02-21T10:31:10.828Z,102496.62
2019-02-21T10:33:47.051Z,102486.63
2019-02-21T10:36:12.122Z,102493.10
2019-02-21T10:38:50.380Z,102494.11
2019-02-21T10:41:20.382Z,102491.41
2019-02-21T10:43:50.302Z,102486.23
2019-02-21T10:46:20.247Z,102483.72
2019-02-21T10:48:50.000Z,102474.06
2019-02-21T10:51:19.846Z,102478.57
2019-02-21T10:53:49.644Z,102476.11
2019-02-21T10:56:19.445Z,102476.23
2019-02-21T10:58:49.224Z,102478.50
2019-02-21T11:01:19.008Z,102475.62
2019-02-21T11:03:48.741Z,102474.31
2019-02-21T11:06:18.619Z,102475.18
2019-02-21T11:08:48.271Z,102480.25
2019-02-21T11:11:18.256Z,102477.34
2019-02-21T11:13:47.928Z,102474.55
2019-02-21T11:16:17.662Z,102468.66
2019-02-21T11:18:47.471Z,102452.41
2019-02-21T11:21:18.935Z,102454.17
2019-02-21T11:23:48.697Z,102450.63
2019-02-21T11:26:18.521Z,102454.56
2019-02-21T11:28:55.426Z,102452.02
2019-02-21T11:31:27.794Z,102448.86
2019-02-21T11:33:56.691Z,102451.20
2019-02-21T11:36:26.452Z,102448.45
2019-02-21T11:38:56.159Z,102457.14
2019-02-21T11:41:25.975Z,102461.26
2019-02-21T11:43:55.763Z,102464.00
2019-02-21T11:46:25.505Z,102460.70
2019-02-21T11:48:55.225Z,102457.22
2019-02-21T11:51:24.909Z,102458.84
2019-02-21T11:53:54.666Z,102461.30
2019-02-21T11:56:24.535Z,102458.36
2019-02-21T11:58:54.446Z,102456.73
2019-02-21T12:01:24.391Z,102463.19
2019-02-21T12:03:54.084Z,102464.41
2019-02-21T12:06:24.310Z,102464.75
2019-02-21T12:08:54.074Z,102459.70
2019-02-21T12:11:23.887Z,102453.84
2019-02-21T12:13:53.735Z,102457.31
2019-02-21T12:16:23.683Z,102450.32
2019-02-21T12:18:53.640Z,102449.25
2019-02-21T12:21:23.474Z,102447.37
2019-02-21T12:23:53.303Z,102442.45
2019-02-21T12:26:23.234Z,102442.95
2019-02-21T12:28:53.134Z,102438.65
2019-02-21T12:31:22.977Z,102431.16
2019-02-21T12:33:53.195Z,102435.70
2019-02-21T12:36:23.055Z,102427.98
2019-02-21T12:38:52.794Z,102431.83
2019-02-21T12:41:22.574Z,102432.69
2019-02-21T12:43:52.651Z,102438.33
2019-02-21T12:46:22.468Z,102438.12
2019-02-21T12:48:52.560Z,102436.50
2019-02-21T12:51:22.288Z,102442.94
2019-02-21T12:53:51.968Z,102438.84
2019-02-21T12:56:21.716Z,102437.69
2019-02-21T12:58:52.459Z,102443.33
2019-02-21T13:01:22.226Z,102448.09
2019-02-21T13:03:52.887Z,102446.77
2019-02-21T13:06:22.668Z,102448.36
2019-02-21T13:08:52.485Z,102452.41
2019-02-21T13:11:22.174Z,102463.89
2019-02-21T13:13:52.031Z,102457.98
2019-02-21T13:16:21.715Z,102462.50
2019-02-21T13:18:51.582Z,102473.35
2019-02-21T13:21:21.360Z,102474.72
2019-02-21T13:23:51.141Z,102477.11
2019-02-21T13:26:20.967Z,102467.16
2019-02-21T13:28:50.765Z,102470.84
2019-02-21T13:31:20.437Z,102471.59
2019-02-21T13:33:50.126Z,102474.45
2019-02-21T13:36:19.968Z,102477.86
2019-02-21T13:38:49.733Z,102474.30
2019-02-21T13:41:19.558Z,102482.77
2019-02-21T13:43:49.273Z,102477.97
2019-02-21T13:46:19.030Z,102475.63
2019-02-21T13:48:48.822Z,102480.64
2019-02-21T13:51:18.546Z,102482.20
2019-02-21T13:53:48.397Z,102475.77
2019-02-21T13:56:18.112Z,102473.09
2019-02-21T13:58:47.767Z,102476.55
2019-02-21T14:03:56.588Z,102474.14
2019-02-21T14:06:26.223Z,102469.17
2019-02-21T14:08:55.934Z,102469.17
2019-02-21T14:11:25.577Z,102462.01
2019-02-21T14:13:55.434Z,102468.32
2019-02-21T14:16:25.126Z,102462.55
2019-02-21T14:18:54.894Z,102461.45
2019-02-21T14:21:24.703Z,102466.50
2019-02-21T14:23:54.449Z,102465.69
2019-02-21T14:26:24.243Z,102462.97
2019-02-21T14:28:54.055Z,102470.18
2019-02-21T14:31:23.872Z,102464.31
2019-02-21T14:33:53.742Z,102470.84
2019-02-21T14:36:24.096Z,102474.04
2019-02-21T14:38:53.870Z,102471.06
2019-02-21T14:41:23.643Z,102464.13
2019-02-21T14:43:53.849Z,102471.85
2019-02-21T14:46:23.596Z,102460.41
2019-02-21T14:48:53.378Z,102464.41
2019-02-21T14:51:23.117Z,102463.05
2019-02-21T14:53:52.941Z,102466.24
2019-02-21T14:56:22.611Z,102459.81
2019-02-21T14:58:52.938Z,102467.36
2019-02-21T15:01:22.695Z,102462.55
2019-02-21T15:03:52.413Z,102462.03
2019-02-21T15:06:27.144Z,102460.70
2019-02-21T15:08:53.601Z,102454.98
2019-02-21T15:11:23.480Z,102451.89
2019-02-21T15:13:53.221Z,102457.67
2019-02-21T15:16:23.217Z,102461.11
2019-02-21T15:18:55.273Z,102453.14
2019-02-21T15:21:24.509Z,102460.64
2019-02-21T15:23:54.324Z,102456.02
2019-02-21T15:26:24.182Z,102453.81
2019-02-21T15:28:54.038Z,102452.44
2019-02-21T15:31:25.976Z,102452.70
2019-02-21T15:33:55.788Z,102446.28
2019-02-21T15:36:25.605Z,102453.23
2019-02-21T15:38:55.573Z,102455.87
2019-02-21T15:41:25.341Z,102452.64
2019-02-21T15:43:54.992Z,102454.73
2019-02-21T15:46:24.784Z,102455.77
2019-02-21T15:48:54.500Z,102460.78
2019-02-21T15:51:25.754Z,102460.00
2019-02-21T15:53:55.579Z,102457.81
2019-02-21T15:56:26.345Z,102460.15
2019-02-21T15:58:56.044Z,102461.23
2019-02-21T16:01:26.496Z,102464.72
2019-02-21T16:03:56.177Z,102466.28
2019-02-21T16:06:25.921Z,102479.86
2019-02-21T16:08:55.598Z,102481.42
2019-02-21T16:11:25.553Z,102478.44
2019-02-21T16:14:03.357Z,102479.99
2019-02-21T16:16:27.551Z,102479.44
2019-02-21T16:18:58.817Z,102490.38
2019-02-21T16:21:29.026Z,102489.81
2019-02-21T16:23:58.955Z,102489.82
2019-02-21T16:26:28.616Z,102485.34
2019-02-21T16:28:58.524Z,102489.30
2019-02-21T16:31:28.195Z,102491.63
2019-02-21T16:33:58.003Z,102493.52
2019-02-21T16:36:27.737Z,102501.23
2019-02-21T16:38:57.717Z,102497.78
2019-02-21T16:41:36.032Z,102511.36
2019-02-21T16:43:58.922Z,102518.55
2019-02-21T16:46:29.669Z,102519.58
2019-02-21T16:48:59.626Z,102507.91
2019-02-21T16:51:29.435Z,102521.52
2019-02-21T16:53:59.246Z,102526.45
2019-02-21T16:56:28.946Z,102526.46
2019-02-21T16:58:58.689Z,102522.44
2019-02-21T17:01:29.959Z,102522.30
2019-02-21T17:03:59.882Z,102527.23
2019-02-21T17:06:29.634Z,102523.48
2019-02-21T17:08:59.427Z,102524.61
2019-02-21T17:11:29.380Z,102532.27
2019-02-21T17:13:59.220Z,102532.51
2019-02-21T17:16:28.957Z,102529.33
2019-02-21T17:18:58.683Z,102530.10
2019-02-21T17:21:28.422Z,102537.86
2019-02-21T17:23:58.149Z,102544.52
2019-02-21T17:26:27.958Z,102542.69
2019-02-21T17:28:57.666Z,102548.59
2019-02-21T17:31:27.596Z,102557.58
2019-02-21T17:33:57.358Z,102564.68
2019-02-21T17:36:29.239Z,102567.09
2019-02-21T17:38:59.122Z,102570.34
2019-02-21T17:41:28.866Z,102569.40
2019-02-21T17:43:58.598Z,102577.66
2019-02-21T17:46:28.523Z,102591.66
2019-02-21T17:48:58.513Z,102589.87
2019-02-21T17:51:28.420Z,102595.87
2019-02-21T17:54:00.217Z,102598.39
2019-02-21T17:56:29.989Z,102603.36
2019-02-21T17:59:00.176Z,102609.16
2019-02-21T18:01:29.876Z,102606.39
2019-02-21T18:03:59.684Z,102611.41
2019-02-21T18:06:29.530Z,102617.14
2019-02-21T18:08:59.199Z,102616.23
2019-02-21T18:11:29.027Z,102619.11
2019-02-21T18:13:58.983Z,102622.30
2019-02-21T18:16:28.805Z,102624.05
2019-02-21T18:18:58.470Z,102619.33
2019-02-21T18:21:28.417Z,102618.73
2019-02-21T18:23:58.245Z,102622.66
2019-02-21T18:26:32.036Z,102623.42
2019-02-21T18:29:02.067Z,102628.45
2019-02-21T18:31:32.954Z,102625.24
2019-02-21T18:34:13.867Z,102628.38
2019-02-21T18:36:43.709Z,102625.52
2019-02-21T18:39:13.512Z,102627.34
2019-02-21T18:41:44.260Z,102631.86
2019-02-21T18:44:13.926Z,102632.11
2019-02-21T18:46:43.774Z,102627.59
2019-02-21T18:49:13.577Z,102634.77
2019-02-21T18:51:43.231Z,102628.70
2019-02-21T18:54:12.987Z,102640.70
2019-02-21T18:56:42.805Z,102642.02
2019-02-21T18:59:12.544Z,102643.43
2019-02-21T19:01:42.443Z,102646.86
2019-02-21T19:04:12.182Z,102648.27
2019-02-21T19:06:41.932Z,102647.78
2019-02-21T19:09:11.954Z,102646.86
2019-02-21T19:11:41.753Z,102642.69
2019-02-21T19:14:11.618Z,102644.79
2019-02-21T19:16:57.347Z,102642.09
2019-02-21T19:19:27.312Z,102650.86
2019-02-21T19:21:57.446Z,102645.52
2019-02-21T19:24:27.271Z,102639.94
2019-02-21T19:26:57.165Z,102648.00
2019-02-21T19:29:27.025Z,102642.09
2019-02-21T19:31:56.755Z,102651.68
2019-02-21T19:34:26.664Z,102648.47
2019-02-21T19:36:56.477Z,102657.53
2019-02-21T19:39:26.484Z,102653.53
2019-02-21T19:41:56.926Z,102658.86
2019-02-21T19:44:26.846Z,102665.78
2019-02-21T19:46:56.645Z,102670.84
2019-02-21T19:49:26.798Z,102668.13
2019-02-21T19:51:57.030Z,102670.79
2019-02-21T19:54:26.825Z,102672.94
2019-02-21T19:56:56.766Z,102677.97
2019-02-21T19:59:26.526Z,102679.45
2019-02-21T20:01:56.447Z,102686.23
2019-02-21T20:04:26.485Z,102692.12
2019-02-21T20:06:56.298Z,102690.61
2019-02-21T20:09:26.136Z,102696.88
2019-02-21T20:11:55.979Z,102706.30
2019-02-21T20:14:26.678Z,102713.32
2019-02-21T20:16:56.674Z,102717.05
2019-02-21T20:19:26.481Z,102714.14
2019-02-21T20:21:56.288Z,102713.75
2019-02-21T20:24:26.138Z,102718.72
2019-02-21T20:26:55.893Z,102720.81
2019-02-21T20:29:25.948Z,102717.09
2019-02-21T20:31:55.792Z,102719.94
2019-02-21T20:34:25.518Z,102724.47
2019-02-21T20:36:55.730Z,102724.61
2019-02-21T20:39:25.704Z,102730.70
2019-02-21T20:41:55.492Z,102739.30
2019-02-21T20:44:25.623Z,102737.14
2019-02-21T20:46:55.394Z,102740.95
2019-02-21T20:49:25.349Z,102750.23
2019-02-21T20:51:56.900Z,102754.27
2019-02-21T20:54:31.004Z,102758.86
2019-02-21T20:57:02.915Z,102758.01
2019-02-21T20:59:32.724Z,102768.60
2019-02-21T21:02:02.710Z,102769.19
2019-02-21T21:04:32.363Z,102767.58
2019-02-21T21:07:02.280Z,102770.34
2019-02-21T21:09:32.147Z,102765.25
2019-02-21T21:12:02.008Z,102767.34
2019-02-21T21:14:31.740Z,102769.66
2019-02-21T21:17:01.558Z,102777.03
2019-02-21T21:19:31.235Z,102782.02
2019-02-21T21:22:00.934Z,102779.83
2019-02-21T21:24:30.692Z,102777.92
2019-02-21T21:27:00.481Z,102786.70
2019-02-21T21:29:30.290Z,102786.66
2019-02-21T21:32:00.014Z,102794.42
2019-02-21T21:34:29.759Z,102800.70
2019-02-21T21:36:59.555Z,102800.97
2019-02-21T21:39:29.392Z,102805.16
2019-02-21T21:41:59.224Z,102803.69
2019-02-21T21:44:28.955Z,102811.05
2019-02-21T21:46:58.924Z,102812.58
2019-02-21T21:49:28.631Z,102814.89
2019-02-21T21:51:58.486Z,102808.23
2019-02-21T21:54:28.227Z,102816.27
2019-02-21T21:56:58.373Z,102815.75
2019-02-21T21:59:28.141Z,102817.25
2019-02-21T22:01:57.923Z,102819.09
2019-02-21T22:04:27.735Z,102819.63
2019-02-21T22:06:57.529Z,102821.20
2019-02-21T22:09:27.313Z,102818.58
2019-02-21T22:11:57.077Z,102814.46
2019-02-21T22:14:26.890Z,102819.40
2019-02-21T22:16:56.559Z,102834.41
2019-02-21T22:19:26.333Z,102830.56
2019-02-21T22:21:56.298Z,102825.75
2019-02-21T22:24:26.182Z,102838.28
2019-02-21T22:26:56.213Z,102829.75
2019-02-21T22:29:25.944Z,102827.67
2019-02-21T22:31:55.710Z,102823.05
2019-02-21T22:34:25.434Z,102827.04
2019-02-21T22:36:55.189Z,102828.95
2019-02-21T22:39:25.027Z,102828.09
2019-02-21T22:41:54.712Z,102825.63
2019-02-21T22:44:24.417Z,102829.63
2019-02-21T22:46:54.165Z,102830.96
2019-02-21T22:49:23.922Z,102837.57
2019-02-21T22:51:53.616Z,102841.18
2019-02-21T22:54:23.333Z,102842.75
2019-02-21T22:56:53.217Z,102847.06
2019-02-21T22:59:22.876Z,102851.25
2019-02-21T23:01:54.444Z,102855.52
2019-02-21T23:04:28.493Z,102857.84
2019-02-21T23:07:23.728Z,102861.05
2019-02-21T23:09:53.446Z,102860.27
2019-02-21T23:12:23.186Z,102853.05
2019-02-21T23:14:52.998Z,102853.45
2019-02-21T23:17:22.925Z,102861.91
2019-02-21T23:19:52.585Z,102866.06
2019-02-21T23:22:22.441Z,102861.48
2019-02-21T23:24:52.161Z,102866.30
2019-02-21T23:27:22.301Z,102862.30
2019-02-21T23:29:52.107Z,102863.47
2019-02-21T23:32:21.836Z,102862.02
2019-02-21T23:34:52.497Z,102863.05
2019-02-21T23:37:22.551Z,102865.31
2019-02-21T23:39:52.601Z,102871.39
2019-02-21T23:42:22.438Z,102872.13
2019-02-21T23:44:52.147Z,102866.81
2019-02-21T23:47:21.950Z,102873.19
2019-02-21T23:49:51.714Z,102870.60
2019-02-21T23:52:21.503Z,102878.05
2019-02-21T23:54:51.329Z,102882.28
2019-02-21T23:57:21.020Z,102873.70
2019-02-21T23:59:50.804Z,102881.34
